createdAt,value
2019-03-17T00:01:12.689Z,2.00
2019-03-17T00:03:41.058Z,1.70
2019-03-17T00:06:09.441Z,2.17
2019-03-17T00:08:37.853Z,1.60
2019-03-17T00:11:06.236Z,1.42
2019-03-17T00:13:34.601Z,1.70
2019-03-17T00:16:03.013Z,1.62
2019-03-17T00:18:31.377Z,1.40
2019-03-17T00:20:59.759Z,1.67
2019-03-17T00:23:28.132Z,1.80
2019-03-17T00:25:56.498Z,1.63
2019-03-17T00:28:24.881Z,1.90
2019-03-17T00:30:53.245Z,2.20
2019-03-17T00:33:21.633Z,1.43
2019-03-17T00:35:50.000Z,2.00
2019-03-17T00:38:18.406Z,1.40
2019-03-17T00:40:46.947Z,2.00
2019-03-17T00:43:15.504Z,1.67
2019-03-17T00:45:43.857Z,1.37
2019-03-17T00:48:12.242Z,1.50
2019-03-17T00:50:40.606Z,1.97
2019-03-17T00:53:08.995Z,1.70
2019-03-17T00:55:37.364Z,1.57
2019-03-17T00:58:05.755Z,1.97
2019-03-17T01:00:34.126Z,1.70
2019-03-17T01:03:02.570Z,1.90
2019-03-17T01:05:31.510Z,1.50
2019-03-17T01:08:00.116Z,1.90
2019-03-17T01:10:28.489Z,1.63
2019-03-17T01:12:57.917Z,1.50
2019-03-17T01:15:26.282Z,1.20
2019-03-17T01:17:54.668Z,1.37
2019-03-17T01:20:23.046Z,1.83
2019-03-17T01:22:51.422Z,1.73
2019-03-17T01:25:19.790Z,1.80
2019-03-17T01:27:48.177Z,1.13
2019-03-17T01:30:16.540Z,1.50
2019-03-17T01:32:44.918Z,1.40
2019-03-17T01:35:13.350Z,1.43
2019-03-17T01:37:41.729Z,1.50
2019-03-17T01:40:10.813Z,1.30
2019-03-17T01:42:39.184Z,1.60
2019-03-17T01:45:09.096Z,1.40
2019-03-17T01:47:37.462Z,1.40
2019-03-17T01:50:07.477Z,1.57
2019-03-17T01:52:35.842Z,1.43
2019-03-17T01:55:05.457Z,1.60
2019-03-17T01:57:33.826Z,1.20
2019-03-17T02:00:02.275Z,1.10
2019-03-17T02:02:30.644Z,1.67
2019-03-17T02:04:59.027Z,1.10
2019-03-17T02:07:28.207Z,1.17
2019-03-17T02:09:56.592Z,1.40
2019-03-17T02:12:24.964Z,1.40
2019-03-17T02:14:53.367Z,1.50
2019-03-17T02:17:21.755Z,1.10
2019-03-17T02:19:50.132Z,1.50
2019-03-17T02:22:18.505Z,1.30
2019-03-17T02:24:46.897Z,1.67
2019-03-17T02:27:15.288Z,1.32
2019-03-17T02:29:43.674Z,1.57
2019-03-17T02:32:12.062Z,1.50
2019-03-17T02:34:40.457Z,0.97
2019-03-17T02:37:08.832Z,1.33
2019-03-17T02:39:37.214Z,1.53
2019-03-17T02:42:05.590Z,1.40
2019-03-17T02:44:33.972Z,1.40
2019-03-17T02:47:02.349Z,1.20
2019-03-17T02:49:30.737Z,1.10
2019-03-17T02:51:59.108Z,1.10
2019-03-17T02:54:27.486Z,1.50
2019-03-17T02:56:55.865Z,0.97
2019-03-17T02:59:24.249Z,1.40
2019-03-17T03:01:52.638Z,1.20
2019-03-17T03:04:21.018Z,1.27
2019-03-17T03:06:49.402Z,0.80
2019-03-17T03:09:17.781Z,1.00
2019-03-17T03:11:46.167Z,1.53
2019-03-17T03:14:14.545Z,1.20
2019-03-17T03:16:42.935Z,1.10
2019-03-17T03:19:11.330Z,1.50
2019-03-17T03:21:39.713Z,0.90
2019-03-17T03:24:08.090Z,1.00
2019-03-17T03:26:36.483Z,1.13
2019-03-17T03:29:04.857Z,1.30
2019-03-17T03:31:33.249Z,1.10
2019-03-17T03:34:01.631Z,1.40
2019-03-17T03:36:30.030Z,1.37
2019-03-17T03:38:58.940Z,1.20
2019-03-17T03:41:27.337Z,1.00
2019-03-17T03:43:55.711Z,0.90
2019-03-17T03:46:24.130Z,1.00
2019-03-17T03:48:52.473Z,1.50
2019-03-17T03:51:20.855Z,1.20
2019-03-17T03:53:49.231Z,1.10
2019-03-17T03:56:17.612Z,1.20
2019-03-17T03:58:46.271Z,1.20
2019-03-17T04:01:14.652Z,1.20
2019-03-17T04:03:43.301Z,1.20
2019-03-17T04:06:25.693Z,1.17
2019-03-17T04:08:41.799Z,1.33
2019-03-17T04:11:10.260Z,1.00
2019-03-17T04:13:38.667Z,1.30
2019-03-17T04:16:07.032Z,1.00
2019-03-17T04:18:35.471Z,1.02
2019-03-17T04:21:03.847Z,1.10
2019-03-17T04:23:32.232Z,1.47
2019-03-17T04:26:00.601Z,1.30
2019-03-17T04:28:29.301Z,1.10
2019-03-17T04:30:57.678Z,0.90
2019-03-17T04:33:26.092Z,1.17
2019-03-17T04:35:54.468Z,1.50
2019-03-17T04:38:22.849Z,1.10
2019-03-17T04:40:51.242Z,1.20
2019-03-17T04:43:19.613Z,1.00
2019-03-17T04:45:47.989Z,0.90
2019-03-17T04:48:16.378Z,1.00
2019-03-17T04:50:44.757Z,1.20
2019-03-17T04:53:13.145Z,1.20
2019-03-17T04:55:41.530Z,1.52
2019-03-17T04:58:09.925Z,1.20
2019-03-17T05:00:38.298Z,1.30
2019-03-17T05:03:06.680Z,1.65
2019-03-17T05:05:35.056Z,1.30
2019-03-17T05:08:03.467Z,1.03
2019-03-17T05:10:31.842Z,1.47
2019-03-17T05:13:00.216Z,2.07
2019-03-17T05:15:28.591Z,2.13
2019-03-17T05:17:56.969Z,2.00
2019-03-17T05:20:25.467Z,1.80
2019-03-17T05:22:53.844Z,2.40
2019-03-17T05:25:22.388Z,2.00
2019-03-17T05:27:50.768Z,2.10
2019-03-17T05:30:19.178Z,2.37
2019-03-17T05:32:47.537Z,1.85
2019-03-17T05:35:15.929Z,3.00
2019-03-17T05:37:44.301Z,2.80
2019-03-17T05:40:12.689Z,3.47
2019-03-17T05:42:41.261Z,3.40
2019-03-17T05:45:10.002Z,3.87
2019-03-17T05:47:38.469Z,4.62
2019-03-17T05:50:08.800Z,3.70
2019-03-17T05:52:37.174Z,4.20
2019-03-17T05:55:08.000Z,3.72
2019-03-17T05:57:36.392Z,3.75
2019-03-17T06:00:10.186Z,3.30
2019-03-17T06:02:38.578Z,3.85
2019-03-17T06:05:08.305Z,3.20
2019-03-17T06:07:36.690Z,3.50
2019-03-17T06:10:06.716Z,3.57
2019-03-17T06:12:35.102Z,3.80
2019-03-17T06:15:03.659Z,3.70
2019-03-17T06:17:32.042Z,3.50
2019-03-17T06:20:00.510Z,4.00
2019-03-17T06:22:29.007Z,3.87
2019-03-17T06:24:57.473Z,3.53
2019-03-17T06:27:25.854Z,3.10
2019-03-17T06:29:54.232Z,3.50
2019-03-17T06:32:22.608Z,4.07
2019-03-17T06:34:51.008Z,3.07
2019-03-17T06:37:30.652Z,4.10
2019-03-17T06:39:49.494Z,3.77
2019-03-17T06:42:17.924Z,3.70
2019-03-17T06:44:46.311Z,4.00
2019-03-17T06:47:14.695Z,4.90
2019-03-17T06:49:43.093Z,3.70
2019-03-17T06:52:11.460Z,3.92
2019-03-17T06:54:39.834Z,3.70
2019-03-17T06:57:08.224Z,3.30
2019-03-17T06:59:36.597Z,3.00
2019-03-17T07:02:05.058Z,3.20
2019-03-17T07:04:33.453Z,3.37
2019-03-17T07:07:01.842Z,3.70
2019-03-17T07:09:30.532Z,3.45
2019-03-17T07:11:59.187Z,3.60
2019-03-17T07:14:27.566Z,3.43
2019-03-17T07:16:55.967Z,3.70
2019-03-17T07:19:24.362Z,3.73
2019-03-17T07:21:52.738Z,3.27
2019-03-17T07:24:21.118Z,3.43
2019-03-17T07:26:49.516Z,2.83
2019-03-17T07:29:17.887Z,3.30
2019-03-17T07:31:46.274Z,3.07
2019-03-17T07:34:14.648Z,3.93
2019-03-17T07:36:43.070Z,3.50
2019-03-17T07:39:12.360Z,2.92
2019-03-17T07:41:40.967Z,3.77
2019-03-17T07:44:09.383Z,3.33
2019-03-17T07:46:37.773Z,3.00
2019-03-17T07:49:06.342Z,3.22
2019-03-17T07:51:34.727Z,2.50
2019-03-17T07:54:03.109Z,3.33
2019-03-17T07:56:31.497Z,2.60
2019-03-17T07:59:00.789Z,2.70
2019-03-17T08:01:29.169Z,3.00
2019-03-17T08:03:57.562Z,2.90
2019-03-17T08:06:25.950Z,2.90
2019-03-17T08:08:54.340Z,3.00
2019-03-17T08:11:22.726Z,2.83
2019-03-17T08:13:51.105Z,2.70
2019-03-17T08:16:19.492Z,3.33
2019-03-17T08:18:47.867Z,2.57
2019-03-17T08:21:16.467Z,2.43
2019-03-17T08:23:45.813Z,2.47
2019-03-17T08:26:14.217Z,2.73
2019-03-17T08:28:42.599Z,2.03
2019-03-17T08:31:11.148Z,2.22
2019-03-17T08:33:39.539Z,2.27
2019-03-17T08:36:07.979Z,2.37
2019-03-17T08:38:36.341Z,2.23
2019-03-17T08:41:04.924Z,2.00
2019-03-17T08:43:33.310Z,2.40
2019-03-17T08:46:01.691Z,2.10
2019-03-17T08:48:31.122Z,1.67
2019-03-17T08:50:59.520Z,2.23
2019-03-17T08:53:27.966Z,1.80
2019-03-17T08:55:56.357Z,2.40
2019-03-17T08:58:24.735Z,2.43
2019-03-17T09:00:53.121Z,1.82
2019-03-17T09:03:21.503Z,2.00
2019-03-17T09:05:49.882Z,2.20
2019-03-17T09:08:18.347Z,2.20
2019-03-17T09:10:46.717Z,2.27
2019-03-17T09:13:15.123Z,2.00
2019-03-17T09:15:43.501Z,2.27
2019-03-17T09:18:11.887Z,1.80
2019-03-17T09:20:40.252Z,1.87
2019-03-17T09:23:08.649Z,2.10
2019-03-17T09:25:37.031Z,2.00
2019-03-17T09:28:05.415Z,2.10
2019-03-17T09:30:33.801Z,2.17
2019-03-17T09:33:02.181Z,1.80
2019-03-17T09:35:31.392Z,2.00
2019-03-17T09:37:59.794Z,2.27
2019-03-17T09:40:28.173Z,1.60
2019-03-17T09:42:56.738Z,2.23
2019-03-17T09:45:25.120Z,1.70
2019-03-17T09:47:53.557Z,2.13
2019-03-17T09:50:21.948Z,2.10
2019-03-17T09:52:50.403Z,1.77
2019-03-17T09:55:18.796Z,1.30
2019-03-17T09:57:47.169Z,1.80
2019-03-17T10:00:17.636Z,2.00
2019-03-17T10:02:46.101Z,1.50
2019-03-17T10:05:14.886Z,1.55
2019-03-17T10:07:43.265Z,1.32
2019-03-17T10:10:22.389Z,2.20
2019-03-17T10:12:50.772Z,1.33
2019-03-17T10:15:19.903Z,1.80
2019-03-17T10:17:48.457Z,1.73
2019-03-17T10:20:20.438Z,1.40
2019-03-17T10:22:49.027Z,1.60
2019-03-17T10:25:17.405Z,1.83
2019-03-17T10:27:45.788Z,1.60
2019-03-17T10:30:19.140Z,1.90
2019-03-17T10:32:47.658Z,1.57
2019-03-17T10:35:16.108Z,1.23
2019-03-17T10:37:44.566Z,2.00
2019-03-17T10:40:15.057Z,1.47
2019-03-17T10:42:43.453Z,1.90
2019-03-17T10:45:12.873Z,1.97
2019-03-17T10:47:41.426Z,1.25
2019-03-17T10:50:12.753Z,1.23
2019-03-17T10:52:41.131Z,1.10
2019-03-17T10:55:10.650Z,1.40
2019-03-17T10:57:39.045Z,1.40
2019-03-17T11:00:24.523Z,1.23
2019-03-17T11:02:52.911Z,1.43
2019-03-17T11:05:21.285Z,1.20
2019-03-17T11:07:49.740Z,1.37
2019-03-17T11:10:18.127Z,1.10
2019-03-17T11:12:46.568Z,1.20
2019-03-17T11:15:18.952Z,1.13
2019-03-17T11:17:47.433Z,1.55
2019-03-17T11:20:16.306Z,1.20
2019-03-17T11:22:44.682Z,1.80
2019-03-17T11:25:14.335Z,1.67
2019-03-17T11:27:42.779Z,1.27
2019-03-17T11:30:18.673Z,1.60
2019-03-17T11:32:47.227Z,1.30
2019-03-17T11:35:15.627Z,1.45
2019-03-17T11:37:44.019Z,1.57
2019-03-17T11:40:16.987Z,1.53
2019-03-17T11:42:45.634Z,1.10
2019-03-17T11:45:17.527Z,1.70
2019-03-17T11:47:46.255Z,1.60
2019-03-17T11:50:15.975Z,1.60
2019-03-17T11:52:44.703Z,1.73
2019-03-17T11:55:13.424Z,1.50
2019-03-17T11:57:42.042Z,2.72
2019-03-17T12:00:18.335Z,1.77
2019-03-17T12:02:46.718Z,2.07
2019-03-17T12:05:15.143Z,1.80
2019-03-17T12:07:43.573Z,1.87
2019-03-17T12:10:22.653Z,1.63
2019-03-17T12:12:51.107Z,1.70
2019-03-17T12:15:21.900Z,1.50
2019-03-17T12:17:50.295Z,1.47
2019-03-17T12:20:18.838Z,1.30
2019-03-17T12:22:47.370Z,1.92
2019-03-17T12:25:19.156Z,1.70
2019-03-17T12:27:47.666Z,2.02
2019-03-17T12:30:26.001Z,1.60
2019-03-17T12:32:54.857Z,2.17
2019-03-17T12:35:23.435Z,1.80
2019-03-17T12:37:52.033Z,1.63
2019-03-17T12:40:20.433Z,1.70
2019-03-17T12:42:48.814Z,1.60
2019-03-17T12:45:17.648Z,1.30
2019-03-17T12:47:46.038Z,2.02
2019-03-17T12:50:16.077Z,1.50
2019-03-17T12:52:44.501Z,1.42
2019-03-17T12:55:12.876Z,1.50
2019-03-17T12:57:41.269Z,1.57
2019-03-17T13:00:12.556Z,1.37
2019-03-17T13:02:41.013Z,1.72
2019-03-17T13:05:10.231Z,1.20
2019-03-17T13:07:38.616Z,1.70
2019-03-17T13:10:15.841Z,2.25
2019-03-17T13:12:42.865Z,3.00
2019-03-17T13:15:12.275Z,4.17
2019-03-17T13:17:40.680Z,3.62
2019-03-17T13:20:16.237Z,2.08
2019-03-17T13:22:44.894Z,2.45
2019-03-17T13:25:13.599Z,2.10
2019-03-17T13:27:41.983Z,1.87
2019-03-17T13:30:15.937Z,2.00
2019-03-17T13:32:44.627Z,2.10
2019-03-17T13:35:13.007Z,2.83
2019-03-17T13:37:41.654Z,1.90
2019-03-17T13:40:28.106Z,2.00
2019-03-17T13:42:48.161Z,2.07
2019-03-17T13:45:16.616Z,2.37
2019-03-17T13:47:46.317Z,2.20
2019-03-17T13:50:17.754Z,2.37
2019-03-17T13:52:46.415Z,2.50
2019-03-17T13:55:14.873Z,3.42
2019-03-17T13:57:58.185Z,3.65
2019-03-17T14:00:26.641Z,4.00
2019-03-17T14:02:55.051Z,3.37
2019-03-17T14:05:23.430Z,2.90
2019-03-17T14:07:51.824Z,3.53
2019-03-17T14:10:20.277Z,3.43
2019-03-17T14:12:48.662Z,3.37
2019-03-17T14:15:17.230Z,4.03
2019-03-17T14:17:45.649Z,3.10
2019-03-17T14:20:23.040Z,3.03
2019-03-17T14:22:51.445Z,2.80
2019-03-17T14:25:25.367Z,3.10
2019-03-17T14:27:53.744Z,3.37
2019-03-17T14:30:22.148Z,2.93
2019-03-17T14:32:50.521Z,2.45
2019-03-17T14:35:21.455Z,2.60
2019-03-17T14:37:49.197Z,3.40
2019-03-17T14:40:17.934Z,3.47
2019-03-17T14:42:48.609Z,3.17
2019-03-17T14:45:17.928Z,3.00
2019-03-17T14:47:46.478Z,2.92
2019-03-17T14:50:17.451Z,3.00
2019-03-17T14:52:45.840Z,2.67
2019-03-17T14:55:14.223Z,4.20
2019-03-17T14:57:42.599Z,2.60
2019-03-17T15:00:24.072Z,2.70
2019-03-17T15:02:52.638Z,2.70
2019-03-17T15:05:21.149Z,3.00
2019-03-17T15:07:49.524Z,2.63
2019-03-17T15:10:22.091Z,2.50
2019-03-17T15:12:50.459Z,2.80
2019-03-17T15:15:20.949Z,2.37
2019-03-17T15:17:49.327Z,2.77
2019-03-17T15:20:25.024Z,2.53
2019-03-17T15:22:53.403Z,1.90
2019-03-17T15:25:21.785Z,1.77
2019-03-17T15:27:50.179Z,2.00
2019-03-17T15:30:31.616Z,2.00
2019-03-17T15:33:00.003Z,1.83
2019-03-17T15:35:28.408Z,2.00
2019-03-17T15:37:56.798Z,1.83
2019-03-17T15:40:25.233Z,2.70
2019-03-17T15:42:53.609Z,1.93
2019-03-17T15:45:23.128Z,1.83
2019-03-17T15:47:51.509Z,1.80
2019-03-17T15:50:24.100Z,1.80
2019-03-17T15:52:52.489Z,1.93
2019-03-17T15:55:20.953Z,2.45
2019-03-17T15:57:49.328Z,2.30
2019-03-17T16:00:25.409Z,1.93
2019-03-17T16:02:49.489Z,2.67
2019-03-17T16:05:18.515Z,1.97
2019-03-17T16:07:47.018Z,2.10
2019-03-17T16:10:26.670Z,1.80
2019-03-17T16:12:55.053Z,2.20
2019-03-17T16:15:23.451Z,1.97
2019-03-17T16:17:51.830Z,1.83
2019-03-17T16:20:24.182Z,2.37
2019-03-17T16:22:53.393Z,2.00
2019-03-17T16:25:27.573Z,2.22
2019-03-17T16:27:55.944Z,2.20
2019-03-17T16:30:25.663Z,1.80
2019-03-17T16:32:54.059Z,2.10
2019-03-17T16:35:22.501Z,1.67
2019-03-17T16:37:50.894Z,1.90
2019-03-17T16:40:21.757Z,1.50
2019-03-17T16:42:50.312Z,1.90
2019-03-17T16:45:19.017Z,1.87
2019-03-17T16:47:47.480Z,2.10
2019-03-17T16:50:23.936Z,1.70
2019-03-17T16:52:52.312Z,1.85
2019-03-17T16:55:20.792Z,1.50
2019-03-17T16:57:49.165Z,1.35
2019-03-17T17:00:21.352Z,1.60
2019-03-17T17:02:50.093Z,1.87
2019-03-17T17:05:20.678Z,1.77
2019-03-17T17:07:49.191Z,1.53
2019-03-17T17:10:25.806Z,1.63
2019-03-17T17:12:54.191Z,1.30
2019-03-17T17:15:33.713Z,1.40
2019-03-17T17:18:02.163Z,1.80
2019-03-17T17:20:39.002Z,2.23
2019-03-17T17:23:07.485Z,1.67
2019-03-17T17:25:35.849Z,2.30
2019-03-17T17:28:05.250Z,1.83
2019-03-17T17:30:33.695Z,2.43
2019-03-17T17:33:02.328Z,2.87
2019-03-17T17:35:30.700Z,2.30
2019-03-17T17:37:59.101Z,2.23
2019-03-17T17:40:28.055Z,2.70
2019-03-17T17:42:56.553Z,2.33
2019-03-17T17:45:25.685Z,2.13
2019-03-17T17:47:54.082Z,2.40
2019-03-17T17:50:33.245Z,2.57
2019-03-17T17:53:01.616Z,2.30
2019-03-17T17:55:29.972Z,2.60
2019-03-17T17:57:58.376Z,2.47
2019-03-17T18:00:31.476Z,2.70
2019-03-17T18:02:59.871Z,2.40
2019-03-17T18:05:28.244Z,2.63
2019-03-17T18:07:56.629Z,2.20
2019-03-17T18:10:25.019Z,2.70
2019-03-17T18:12:53.431Z,1.83
2019-03-17T18:15:22.953Z,2.53
2019-03-17T18:17:51.330Z,1.95
2019-03-17T18:20:20.182Z,2.23
2019-03-17T18:22:48.633Z,2.57
2019-03-17T18:25:19.322Z,2.37
2019-03-17T18:27:52.335Z,2.20
2019-03-17T18:30:23.868Z,2.40
2019-03-17T18:32:52.508Z,2.30
2019-03-17T18:35:21.000Z,2.13
2019-03-17T18:37:51.055Z,2.30
2019-03-17T18:40:20.591Z,2.12
2019-03-17T18:42:49.363Z,2.17
2019-03-17T18:45:26.554Z,1.95
2019-03-17T18:47:57.642Z,2.70
2019-03-17T18:50:27.095Z,2.13
2019-03-17T18:52:56.047Z,2.50
2019-03-17T18:55:24.441Z,2.27
2019-03-17T18:57:53.161Z,2.03
2019-03-17T19:00:23.077Z,1.92
2019-03-17T19:02:51.707Z,1.93
2019-03-17T19:05:20.574Z,2.00
2019-03-17T19:07:48.996Z,1.97
2019-03-17T19:10:18.867Z,1.80
2019-03-17T19:12:49.099Z,1.40
2019-03-17T19:15:24.352Z,2.20
2019-03-17T19:17:53.199Z,2.30
2019-03-17T19:20:22.710Z,2.00
2019-03-17T19:22:51.081Z,1.87
2019-03-17T19:25:23.982Z,1.98
2019-03-17T19:27:53.232Z,2.10
2019-03-17T19:30:24.874Z,2.53
2019-03-17T19:32:53.316Z,2.33
2019-03-17T19:35:21.702Z,2.17
2019-03-17T19:37:50.220Z,1.70
2019-03-17T19:40:22.873Z,2.23
2019-03-17T19:42:58.550Z,1.80
2019-03-17T19:45:21.507Z,2.10
2019-03-17T19:47:49.957Z,2.10
2019-03-17T19:50:22.756Z,1.50
2019-03-17T19:52:51.422Z,2.40
2019-03-17T19:55:19.849Z,1.80
2019-03-17T19:57:48.380Z,2.03
2019-03-17T20:00:21.696Z,1.73
2019-03-17T20:02:50.538Z,2.33
2019-03-17T20:05:19.042Z,2.35
2019-03-17T20:07:48.494Z,1.87
2019-03-17T20:10:22.118Z,2.27
2019-03-17T20:12:50.517Z,2.00
2019-03-17T20:15:19.382Z,1.70
2019-03-17T20:17:47.745Z,2.17
2019-03-17T20:20:16.127Z,1.63
2019-03-17T20:22:44.714Z,2.03
2019-03-17T20:25:17.127Z,1.47
2019-03-17T20:27:46.895Z,2.07
2019-03-17T20:30:17.507Z,1.90
2019-03-17T20:32:46.157Z,1.93
2019-03-17T20:35:14.815Z,1.70
2019-03-17T20:37:43.277Z,1.97
2019-03-17T20:40:13.776Z,2.05
2019-03-17T20:42:42.169Z,2.15
2019-03-17T20:45:12.789Z,1.90
2019-03-17T20:47:41.165Z,1.90
2019-03-17T20:50:17.809Z,1.80
2019-03-17T20:52:46.583Z,2.00
2019-03-17T20:55:15.100Z,2.00
2019-03-17T20:57:43.489Z,1.47
2019-03-17T21:00:14.280Z,1.93
2019-03-17T21:02:42.673Z,1.50
2019-03-17T21:05:12.032Z,2.10
2019-03-17T21:07:41.255Z,2.20
2019-03-17T21:10:13.996Z,1.93
2019-03-17T21:12:42.386Z,1.97
2019-03-17T21:15:18.489Z,2.10
2019-03-17T21:17:46.877Z,2.00
2019-03-17T21:20:17.541Z,2.53
2019-03-17T21:22:45.952Z,1.57
2019-03-17T21:25:14.423Z,2.00
2019-03-17T21:27:42.814Z,1.60
2019-03-17T21:30:20.042Z,1.47
2019-03-17T21:32:48.441Z,2.43
2019-03-17T21:35:16.825Z,1.70
2019-03-17T21:37:45.221Z,1.70
2019-03-17T21:40:13.567Z,1.30
2019-03-17T21:42:41.969Z,1.50
2019-03-17T21:45:11.784Z,2.00
2019-03-17T21:47:40.237Z,1.97
2019-03-17T21:50:16.609Z,1.47
2019-03-17T21:52:45.012Z,1.50
2019-03-17T21:55:14.117Z,1.62
2019-03-17T21:57:42.503Z,2.80
2019-03-17T22:00:18.664Z,1.60
2019-03-17T22:02:47.113Z,1.90
2019-03-17T22:05:15.493Z,1.70
2019-03-17T22:07:50.231Z,1.40
2019-03-17T22:10:16.589Z,1.72
2019-03-17T22:12:44.960Z,1.60
2019-03-17T22:15:14.567Z,1.50
2019-03-17T22:17:43.039Z,2.00
2019-03-17T22:20:15.948Z,1.37
2019-03-17T22:22:44.403Z,1.77
2019-03-17T22:25:13.822Z,1.73
2019-03-17T22:27:42.278Z,1.50
2019-03-17T22:30:22.865Z,1.47
2019-03-17T22:32:51.257Z,1.23
2019-03-17T22:35:19.627Z,1.65
2019-03-17T22:37:48.098Z,1.30
2019-03-17T22:40:17.300Z,1.87
2019-03-17T22:42:45.694Z,1.43
2019-03-17T22:45:15.102Z,1.77
2019-03-17T22:47:43.482Z,1.40
2019-03-17T22:50:15.609Z,1.60
2019-03-17T22:52:44.005Z,1.30
2019-03-17T22:55:12.832Z,1.70
2019-03-17T22:57:41.214Z,1.77
2019-03-17T23:00:22.058Z,1.67
2019-03-17T23:02:50.433Z,1.77
2019-03-17T23:05:18.856Z,1.80
2019-03-17T23:07:47.228Z,1.40
2019-03-17T23:10:15.624Z,1.40
2019-03-17T23:12:44.142Z,1.60
2019-03-17T23:15:13.278Z,1.93
2019-03-17T23:17:41.647Z,1.33
2019-03-17T23:20:14.505Z,2.23
2019-03-17T23:22:42.963Z,1.30
2019-03-17T23:25:12.084Z,1.87
2019-03-17T23:27:40.474Z,1.60
2019-03-17T23:30:16.876Z,1.43
2019-03-17T23:32:45.269Z,1.80
2019-03-17T23:35:13.663Z,1.60
2019-03-17T23:37:42.029Z,1.80
2019-03-17T23:40:15.498Z,1.33
2019-03-17T23:42:43.874Z,1.30
2019-03-17T23:45:12.797Z,1.33
2019-03-17T23:47:41.191Z,1.30
2019-03-17T23:50:11.954Z,1.97
2019-03-17T23:52:40.338Z,1.67
2019-03-17T23:55:11.226Z,1.40
2019-03-17T23:57:39.612Z,1.33
